sensor_id;sensor_type;location;lat;lon;timestamp;P1;durP1;ratioP1;P2;durP2;ratioP2
16416;SDS011;8317;52.186;5.688;2022-07-29T00:01:35;4.63;;;1.88;;
16416;SDS011;8317;52.186;5.688;2022-07-29T00:04:02;4.07;;;1.70;;
16416;SDS011;8317;52.186;5.688;2022-07-29T00:06:29;7.32;;;1.73;;
16416;SDS011;8317;52.186;5.688;2022-07-29T00:08:57;2.58;;;1.58;;
16416;SDS011;8317;52.186;5.688;2022-07-29T00:11:24;3.25;;;1.40;;
16416;SDS011;8317;52.186;5.688;2022-07-29T00:13:51;4.63;;;1.85;;
16416;SDS011;8317;52.186;5.688;2022-07-29T00:16:17;4.97;;;1.85;;
16416;SDS011;8317;52.186;5.688;2022-07-29T00:18:44;4.72;;;1.80;;
16416;SDS011;8317;52.186;5.688;2022-07-29T00:21:11;4.65;;;1.98;;
16416;SDS011;8317;52.186;5.688;2022-07-29T00:23:38;3.83;;;1.80;;
16416;SDS011;8317;52.186;5.688;2022-07-29T00:26:06;3.28;;;2.08;;
16416;SDS011;8317;52.186;5.688;2022-07-29T00:28:33;3.45;;;1.67;;
16416;SDS011;8317;52.186;5.688;2022-07-29T00:31:00;7.00;;;1.60;;
16416;SDS011;8317;52.186;5.688;2022-07-29T00:33:28;4.57;;;1.85;;
16416;SDS011;8317;52.186;5.688;2022-07-29T00:35:55;4.35;;;1.80;;
16416;SDS011;8317;52.186;5.688;2022-07-29T00:38:21;2.35;;;1.50;;
16416;SDS011;8317;52.186;5.688;2022-07-29T00:40:48;7.25;;;2.00;;
16416;SDS011;8317;52.186;5.688;2022-07-29T00:43:16;6.38;;;1.83;;
16416;SDS011;8317;52.186;5.688;2022-07-29T00:45:43;5.53;;;2.20;;
16416;SDS011;8317;52.186;5.688;2022-07-29T00:48:10;2.85;;;1.55;;
16416;SDS011;8317;52.186;5.688;2022-07-29T00:50:38;9.02;;;1.70;;
16416;SDS011;8317;52.186;5.688;2022-07-29T00:53:06;4.45;;;1.80;;
16416;SDS011;8317;52.186;5.688;2022-07-29T00:55:33;5.30;;;2.53;;
16416;SDS011;8317;52.186;5.688;2022-07-29T00:58:00;4.00;;;1.88;;
16416;SDS011;8317;52.186;5.688;2022-07-29T01:00:29;2.42;;;2.10;;
16416;SDS011;8317;52.186;5.688;2022-07-29T01:02:56;2.83;;;1.95;;
16416;SDS011;8317;52.186;5.688;2022-07-29T01:05:23;3.47;;;1.73;;
16416;SDS011;8317;52.186;5.688;2022-07-29T01:07:52;3.55;;;1.98;;
16416;SDS011;8317;52.186;5.688;2022-07-29T01:10:20;1.77;;;1.60;;
16416;SDS011;8317;52.186;5.688;2022-07-29T01:12:49;4.57;;;2.15;;
16416;SDS011;8317;52.186;5.688;2022-07-29T01:15:17;5.03;;;1.80;;
16416;SDS011;8317;52.186;5.688;2022-07-29T01:17:48;3.63;;;2.25;;
16416;SDS011;8317;52.186;5.688;2022-07-29T01:20:24;4.45;;;1.92;;
16416;SDS011;8317;52.186;5.688;2022-07-29T01:26:03;4.53;;;2.67;;
16416;SDS011;8317;52.186;5.688;2022-07-29T01:28:44;5.13;;;2.72;;
16416;SDS011;8317;52.186;5.688;2022-07-29T01:31:19;4.72;;;1.90;;
16416;SDS011;8317;52.186;5.688;2022-07-29T01:33:53;3.05;;;2.15;;
16416;SDS011;8317;52.186;5.688;2022-07-29T01:36:26;4.05;;;2.30;;
16416;SDS011;8317;52.186;5.688;2022-07-29T01:38:57;3.70;;;2.40;;
16416;SDS011;8317;52.186;5.688;2022-07-29T01:41:28;2.65;;;2.35;;
16416;SDS011;8317;52.186;5.688;2022-07-29T01:43:59;3.13;;;2.08;;
16416;SDS011;8317;52.186;5.688;2022-07-29T01:46:35;2.70;;;1.92;;
16416;SDS011;8317;52.186;5.688;2022-07-29T01:49:06;3.67;;;2.13;;
16416;SDS011;8317;52.186;5.688;2022-07-29T01:51:40;3.78;;;2.42;;
16416;SDS011;8317;52.186;5.688;2022-07-29T01:54:13;5.25;;;2.15;;
16416;SDS011;8317;52.186;5.688;2022-07-29T01:56:45;3.67;;;2.20;;
16416;SDS011;8317;52.186;5.688;2022-07-29T01:59:15;3.28;;;1.92;;
16416;SDS011;8317;52.186;5.688;2022-07-29T02:01:44;4.95;;;2.60;;
16416;SDS011;8317;52.186;5.688;2022-07-29T02:04:13;5.15;;;2.30;;
16416;SDS011;8317;52.186;5.688;2022-07-29T02:06:41;3.90;;;2.60;;
16416;SDS011;8317;52.186;5.688;2022-07-29T02:09:10;5.07;;;2.40;;
16416;SDS011;8317;52.186;5.688;2022-07-29T02:11:39;2.22;;;2.03;;
16416;SDS011;8317;52.186;5.688;2022-07-29T02:14:10;9.00;;;2.40;;
16416;SDS011;8317;52.186;5.688;2022-07-29T02:16:40;4.28;;;2.45;;
16416;SDS011;8317;52.186;5.688;2022-07-29T02:19:09;4.78;;;2.08;;
16416;SDS011;8317;52.186;5.688;2022-07-29T02:21:37;4.38;;;1.85;;
16416;SDS011;8317;52.186;5.688;2022-07-29T02:24:05;2.70;;;2.15;;
16416;SDS011;8317;52.186;5.688;2022-07-29T02:26:34;3.35;;;2.22;;
16416;SDS011;8317;52.186;5.688;2022-07-29T02:29:02;5.75;;;2.40;;
16416;SDS011;8317;52.186;5.688;2022-07-29T02:31:31;5.28;;;2.42;;
16416;SDS011;8317;52.186;5.688;2022-07-29T02:34:01;4.00;;;2.10;;
16416;SDS011;8317;52.186;5.688;2022-07-29T02:36:29;5.40;;;2.55;;
16416;SDS011;8317;52.186;5.688;2022-07-29T02:38:57;3.65;;;2.08;;
16416;SDS011;8317;52.186;5.688;2022-07-29T02:41:27;2.95;;;2.33;;
16416;SDS011;8317;52.186;5.688;2022-07-29T02:43:58;3.28;;;2.28;;
16416;SDS011;8317;52.186;5.688;2022-07-29T02:46:31;5.90;;;2.20;;
16416;SDS011;8317;52.186;5.688;2022-07-29T02:49:04;3.95;;;2.08;;
16416;SDS011;8317;52.186;5.688;2022-07-29T02:51:39;5.85;;;2.88;;
16416;SDS011;8317;52.186;5.688;2022-07-29T02:54:09;4.25;;;2.03;;
16416;SDS011;8317;52.186;5.688;2022-07-29T02:56:40;2.15;;;1.95;;
16416;SDS011;8317;52.186;5.688;2022-07-29T02:59:09;4.03;;;2.08;;
16416;SDS011;8317;52.186;5.688;2022-07-29T03:01:39;4.13;;;1.90;;
16416;SDS011;8317;52.186;5.688;2022-07-29T03:04:11;5.32;;;2.22;;
16416;SDS011;8317;52.186;5.688;2022-07-29T03:06:38;4.30;;;2.17;;
16416;SDS011;8317;52.186;5.688;2022-07-29T03:09:07;4.10;;;2.03;;
16416;SDS011;8317;52.186;5.688;2022-07-29T03:11:36;4.78;;;2.05;;
16416;SDS011;8317;52.186;5.688;2022-07-29T03:14:04;3.33;;;2.03;;
16416;SDS011;8317;52.186;5.688;2022-07-29T03:16:31;3.58;;;2.03;;
16416;SDS011;8317;52.186;5.688;2022-07-29T03:19:01;3.60;;;1.98;;
16416;SDS011;8317;52.186;5.688;2022-07-29T03:21:31;4.28;;;2.17;;
16416;SDS011;8317;52.186;5.688;2022-07-29T03:23:58;3.95;;;2.05;;
16416;SDS011;8317;52.186;5.688;2022-07-29T03:26:25;6.25;;;1.88;;
16416;SDS011;8317;52.186;5.688;2022-07-29T03:28:52;6.07;;;2.42;;
16416;SDS011;8317;52.186;5.688;2022-07-29T03:31:19;6.13;;;2.25;;
16416;SDS011;8317;52.186;5.688;2022-07-29T03:33:45;3.47;;;2.20;;
16416;SDS011;8317;52.186;5.688;2022-07-29T03:36:12;4.10;;;1.95;;
16416;SDS011;8317;52.186;5.688;2022-07-29T03:38:40;4.38;;;2.33;;
16416;SDS011;8317;52.186;5.688;2022-07-29T03:41:10;2.92;;;2.17;;
16416;SDS011;8317;52.186;5.688;2022-07-29T03:43:39;5.57;;;2.20;;
16416;SDS011;8317;52.186;5.688;2022-07-29T03:46:08;3.20;;;2.40;;
16416;SDS011;8317;52.186;5.688;2022-07-29T03:48:39;5.57;;;2.25;;
16416;SDS011;8317;52.186;5.688;2022-07-29T03:51:10;3.95;;;2.40;;
16416;SDS011;8317;52.186;5.688;2022-07-29T03:53:37;3.35;;;2.00;;
16416;SDS011;8317;52.186;5.688;2022-07-29T03:56:05;3.40;;;2.03;;
16416;SDS011;8317;52.186;5.688;2022-07-29T03:58:34;4.75;;;2.22;;
16416;SDS011;8317;52.186;5.688;2022-07-29T04:01:01;5.68;;;2.85;;
16416;SDS011;8317;52.186;5.688;2022-07-29T04:03:28;5.68;;;2.40;;
16416;SDS011;8317;52.186;5.688;2022-07-29T04:05:59;2.78;;;2.13;;
16416;SDS011;8317;52.186;5.688;2022-07-29T04:08:27;7.07;;;2.40;;
16416;SDS011;8317;52.186;5.688;2022-07-29T04:10:54;4.50;;;2.58;;
16416;SDS011;8317;52.186;5.688;2022-07-29T04:13:22;4.85;;;2.50;;
16416;SDS011;8317;52.186;5.688;2022-07-29T04:15:49;4.20;;;2.83;;
16416;SDS011;8317;52.186;5.688;2022-07-29T04:18:16;4.38;;;3.00;;
16416;SDS011;8317;52.186;5.688;2022-07-29T04:20:43;3.83;;;2.20;;
16416;SDS011;8317;52.186;5.688;2022-07-29T04:23:10;3.78;;;2.40;;
16416;SDS011;8317;52.186;5.688;2022-07-29T04:25:37;3.10;;;2.20;;
16416;SDS011;8317;52.186;5.688;2022-07-29T04:28:04;2.45;;;2.22;;
16416;SDS011;8317;52.186;5.688;2022-07-29T04:30:33;3.22;;;2.40;;
16416;SDS011;8317;52.186;5.688;2022-07-29T04:33:02;2.83;;;2.47;;
16416;SDS011;8317;52.186;5.688;2022-07-29T04:35:30;4.00;;;2.38;;
16416;SDS011;8317;52.186;5.688;2022-07-29T04:38:00;6.32;;;2.78;;
16416;SDS011;8317;52.186;5.688;2022-07-29T04:40:27;2.65;;;2.30;;
16416;SDS011;8317;52.186;5.688;2022-07-29T04:42:54;4.70;;;2.72;;
16416;SDS011;8317;52.186;5.688;2022-07-29T04:45:21;5.95;;;2.40;;
16416;SDS011;8317;52.186;5.688;2022-07-29T04:47:50;7.05;;;2.33;;
16416;SDS011;8317;52.186;5.688;2022-07-29T04:50:16;3.25;;;2.00;;
16416;SDS011;8317;52.186;5.688;2022-07-29T04:52:43;4.45;;;2.28;;
16416;SDS011;8317;52.186;5.688;2022-07-29T04:55:10;2.97;;;2.00;;
16416;SDS011;8317;52.186;5.688;2022-07-29T04:57:37;3.63;;;2.75;;
16416;SDS011;8317;52.186;5.688;2022-07-29T05:00:05;6.38;;;2.75;;
16416;SDS011;8317;52.186;5.688;2022-07-29T05:02:33;6.25;;;2.22;;
16416;SDS011;8317;52.186;5.688;2022-07-29T05:05:01;2.85;;;2.50;;
16416;SDS011;8317;52.186;5.688;2022-07-29T05:07:28;2.58;;;2.38;;
16416;SDS011;8317;52.186;5.688;2022-07-29T05:09:55;4.13;;;2.15;;
16416;SDS011;8317;52.186;5.688;2022-07-29T05:12:22;4.13;;;2.40;;
16416;SDS011;8317;52.186;5.688;2022-07-29T05:14:49;5.80;;;2.53;;
16416;SDS011;8317;52.186;5.688;2022-07-29T05:17:16;4.38;;;2.50;;
16416;SDS011;8317;52.186;5.688;2022-07-29T05:19:43;5.30;;;2.22;;
16416;SDS011;8317;52.186;5.688;2022-07-29T05:22:11;4.60;;;2.20;;
16416;SDS011;8317;52.186;5.688;2022-07-29T05:24:38;4.85;;;2.40;;
16416;SDS011;8317;52.186;5.688;2022-07-29T05:27:05;3.25;;;2.65;;
16416;SDS011;8317;52.186;5.688;2022-07-29T05:29:32;6.18;;;2.50;;
16416;SDS011;8317;52.186;5.688;2022-07-29T05:31:59;3.28;;;2.58;;
16416;SDS011;8317;52.186;5.688;2022-07-29T05:34:26;4.45;;;2.47;;
16416;SDS011;8317;52.186;5.688;2022-07-29T05:36:53;2.88;;;2.40;;
16416;SDS011;8317;52.186;5.688;2022-07-29T05:39:21;4.97;;;2.83;;
16416;SDS011;8317;52.186;5.688;2022-07-29T05:41:48;4.28;;;2.58;;
16416;SDS011;8317;52.186;5.688;2022-07-29T05:44:15;4.63;;;2.80;;
16416;SDS011;8317;52.186;5.688;2022-07-29T05:46:42;5.78;;;2.70;;
16416;SDS011;8317;52.186;5.688;2022-07-29T05:49:09;4.32;;;2.92;;
16416;SDS011;8317;52.186;5.688;2022-07-29T05:51:37;3.63;;;2.60;;
16416;SDS011;8317;52.186;5.688;2022-07-29T05:54:03;4.30;;;2.50;;
16416;SDS011;8317;52.186;5.688;2022-07-29T05:56:32;4.75;;;2.50;;
16416;SDS011;8317;52.186;5.688;2022-07-29T05:58:59;4.93;;;2.33;;
16416;SDS011;8317;52.186;5.688;2022-07-29T06:01:25;5.75;;;2.65;;
16416;SDS011;8317;52.186;5.688;2022-07-29T06:03:52;7.35;;;3.25;;
16416;SDS011;8317;52.186;5.688;2022-07-29T06:06:19;4.45;;;2.78;;
16416;SDS011;8317;52.186;5.688;2022-07-29T06:08:46;5.05;;;2.60;;
16416;SDS011;8317;52.186;5.688;2022-07-29T06:11:13;2.55;;;2.35;;
16416;SDS011;8317;52.186;5.688;2022-07-29T06:13:41;5.55;;;3.03;;
16416;SDS011;8317;52.186;5.688;2022-07-29T06:16:08;5.53;;;2.83;;
16416;SDS011;8317;52.186;5.688;2022-07-29T06:18:35;4.63;;;2.60;;
16416;SDS011;8317;52.186;5.688;2022-07-29T06:21:06;6.50;;;2.90;;
16416;SDS011;8317;52.186;5.688;2022-07-29T06:23:34;5.10;;;2.90;;
16416;SDS011;8317;52.186;5.688;2022-07-29T06:26:01;4.82;;;2.72;;
16416;SDS011;8317;52.186;5.688;2022-07-29T06:28:28;5.38;;;2.92;;
16416;SDS011;8317;52.186;5.688;2022-07-29T06:30:57;4.25;;;2.50;;
16416;SDS011;8317;52.186;5.688;2022-07-29T06:33:24;5.10;;;2.65;;
16416;SDS011;8317;52.186;5.688;2022-07-29T06:35:50;5.05;;;2.42;;
16416;SDS011;8317;52.186;5.688;2022-07-29T06:38:17;5.43;;;2.70;;
16416;SDS011;8317;52.186;5.688;2022-07-29T06:40:44;3.42;;;2.60;;
16416;SDS011;8317;52.186;5.688;2022-07-29T06:43:28;4.35;;;2.90;;
16416;SDS011;8317;52.186;5.688;2022-07-29T06:46:00;4.63;;;2.75;;
16416;SDS011;8317;52.186;5.688;2022-07-29T06:48:28;5.70;;;2.90;;
16416;SDS011;8317;52.186;5.688;2022-07-29T06:50:56;4.05;;;2.70;;
16416;SDS011;8317;52.186;5.688;2022-07-29T06:53:23;3.85;;;2.70;;
16416;SDS011;8317;52.186;5.688;2022-07-29T06:55:50;3.83;;;2.53;;
16416;SDS011;8317;52.186;5.688;2022-07-29T06:58:17;6.57;;;2.83;;
16416;SDS011;8317;52.186;5.688;2022-07-29T07:00:45;4.90;;;2.60;;
16416;SDS011;8317;52.186;5.688;2022-07-29T07:03:14;6.18;;;2.75;;
16416;SDS011;8317;52.186;5.688;2022-07-29T07:05:41;9.27;;;2.95;;
16416;SDS011;8317;52.186;5.688;2022-07-29T07:08:09;4.18;;;2.78;;
16416;SDS011;8317;52.186;5.688;2022-07-29T07:10:36;5.07;;;2.63;;
16416;SDS011;8317;52.186;5.688;2022-07-29T07:13:03;4.75;;;2.63;;
16416;SDS011;8317;52.186;5.688;2022-07-29T07:15:31;3.65;;;2.58;;
16416;SDS011;8317;52.186;5.688;2022-07-29T07:17:58;4.82;;;2.58;;
16416;SDS011;8317;52.186;5.688;2022-07-29T07:20:26;5.47;;;2.50;;
16416;SDS011;8317;52.186;5.688;2022-07-29T07:22:53;3.63;;;2.40;;
16416;SDS011;8317;52.186;5.688;2022-07-29T07:25:20;4.45;;;2.50;;
16416;SDS011;8317;52.186;5.688;2022-07-29T07:27:46;4.05;;;2.40;;
16416;SDS011;8317;52.186;5.688;2022-07-29T07:30:14;5.00;;;2.40;;
16416;SDS011;8317;52.186;5.688;2022-07-29T07:32:41;2.90;;;2.20;;
16416;SDS011;8317;52.186;5.688;2022-07-29T07:35:08;7.70;;;2.72;;
16416;SDS011;8317;52.186;5.688;2022-07-29T07:37:38;4.97;;;2.55;;
16416;SDS011;8317;52.186;5.688;2022-07-29T07:40:07;4.70;;;2.20;;
16416;SDS011;8317;52.186;5.688;2022-07-29T07:42:35;5.65;;;2.72;;
16416;SDS011;8317;52.186;5.688;2022-07-29T07:45:02;3.55;;;2.20;;
16416;SDS011;8317;52.186;5.688;2022-07-29T07:47:29;3.42;;;2.38;;
16416;SDS011;8317;52.186;5.688;2022-07-29T07:49:56;4.18;;;2.15;;
16416;SDS011;8317;52.186;5.688;2022-07-29T07:52:23;5.55;;;2.28;;
16416;SDS011;8317;52.186;5.688;2022-07-29T07:54:51;5.45;;;2.42;;
16416;SDS011;8317;52.186;5.688;2022-07-29T07:57:18;2.95;;;1.80;;
16416;SDS011;8317;52.186;5.688;2022-07-29T07:59:45;3.10;;;1.90;;
16416;SDS011;8317;52.186;5.688;2022-07-29T08:02:12;2.58;;;2.10;;
16416;SDS011;8317;52.186;5.688;2022-07-29T08:04:39;3.08;;;2.15;;
16416;SDS011;8317;52.186;5.688;2022-07-29T08:07:06;7.30;;;2.30;;
16416;SDS011;8317;52.186;5.688;2022-07-29T08:09:34;4.97;;;2.13;;
16416;SDS011;8317;52.186;5.688;2022-07-29T08:12:02;4.28;;;2.30;;
16416;SDS011;8317;52.186;5.688;2022-07-29T08:14:31;3.97;;;2.35;;
16416;SDS011;8317;52.186;5.688;2022-07-29T08:16:59;8.85;;;2.20;;
16416;SDS011;8317;52.186;5.688;2022-07-29T08:19:26;3.58;;;2.22;;
16416;SDS011;8317;52.186;5.688;2022-07-29T08:21:53;3.58;;;2.10;;
16416;SDS011;8317;52.186;5.688;2022-07-29T08:24:20;8.63;;;2.42;;
16416;SDS011;8317;52.186;5.688;2022-07-29T08:27:06;3.58;;;1.95;;
16416;SDS011;8317;52.186;5.688;2022-07-29T08:29:33;3.28;;;1.88;;
16416;SDS011;8317;52.186;5.688;2022-07-29T08:32:00;3.13;;;1.88;;
16416;SDS011;8317;52.186;5.688;2022-07-29T08:34:27;3.28;;;1.98;;
16416;SDS011;8317;52.186;5.688;2022-07-29T08:36:55;4.00;;;1.83;;
16416;SDS011;8317;52.186;5.688;2022-07-29T08:39:22;5.82;;;2.38;;
16416;SDS011;8317;52.186;5.688;2022-07-29T08:41:49;2.47;;;1.83;;
16416;SDS011;8317;52.186;5.688;2022-07-29T08:44:18;5.03;;;2.13;;
16416;SDS011;8317;52.186;5.688;2022-07-29T08:46:46;2.30;;;1.73;;
16416;SDS011;8317;52.186;5.688;2022-07-29T08:49:13;3.60;;;1.77;;
16416;SDS011;8317;52.186;5.688;2022-07-29T08:51:40;3.38;;;1.60;;
16416;SDS011;8317;52.186;5.688;2022-07-29T08:54:08;2.30;;;1.75;;
16416;SDS011;8317;52.186;5.688;2022-07-29T08:56:36;6.03;;;2.15;;
16416;SDS011;8317;52.186;5.688;2022-07-29T08:59:06;3.63;;;1.70;;
16416;SDS011;8317;52.186;5.688;2022-07-29T09:01:37;3.75;;;1.67;;
16416;SDS011;8317;52.186;5.688;2022-07-29T09:04:05;3.20;;;1.50;;
16416;SDS011;8317;52.186;5.688;2022-07-29T09:06:37;5.40;;;1.52;;
16416;SDS011;8317;52.186;5.688;2022-07-29T09:09:09;1.85;;;1.45;;
16416;SDS011;8317;52.186;5.688;2022-07-29T09:11:36;4.30;;;1.90;;
16416;SDS011;8317;52.186;5.688;2022-07-29T09:14:03;3.35;;;1.60;;
16416;SDS011;8317;52.186;5.688;2022-07-29T09:16:45;3.50;;;1.55;;
16416;SDS011;8317;52.186;5.688;2022-07-29T09:19:19;3.17;;;1.70;;
16416;SDS011;8317;52.186;5.688;2022-07-29T09:21:51;5.05;;;2.40;;
16416;SDS011;8317;52.186;5.688;2022-07-29T09:24:25;3.78;;;1.90;;
16416;SDS011;8317;52.186;5.688;2022-07-29T09:27:08;7.93;;;2.10;;
16416;SDS011;8317;52.186;5.688;2022-07-29T09:29:46;6.03;;;2.28;;
16416;SDS011;8317;52.186;5.688;2022-07-29T09:32:15;16.08;;;2.33;;
16416;SDS011;8317;52.186;5.688;2022-07-29T09:34:42;8.35;;;2.28;;
16416;SDS011;8317;52.186;5.688;2022-07-29T09:37:08;2.47;;;1.70;;
16416;SDS011;8317;52.186;5.688;2022-07-29T09:39:37;4.55;;;1.90;;
16416;SDS011;8317;52.186;5.688;2022-07-29T09:42:10;4.38;;;1.70;;
16416;SDS011;8317;52.186;5.688;2022-07-29T09:44:42;3.65;;;1.98;;
16416;SDS011;8317;52.186;5.688;2022-07-29T09:47:10;5.45;;;2.08;;
16416;SDS011;8317;52.186;5.688;2022-07-29T09:49:51;4.57;;;1.95;;
16416;SDS011;8317;52.186;5.688;2022-07-29T09:52:19;3.22;;;1.60;;
16416;SDS011;8317;52.186;5.688;2022-07-29T09:54:47;3.22;;;1.80;;
16416;SDS011;8317;52.186;5.688;2022-07-29T09:57:26;4.25;;;1.85;;
16416;SDS011;8317;52.186;5.688;2022-07-29T09:59:58;5.75;;;1.90;;
16416;SDS011;8317;52.186;5.688;2022-07-29T10:02:29;2.70;;;1.70;;
16416;SDS011;8317;52.186;5.688;2022-07-29T10:04:58;1.98;;;1.70;;
16416;SDS011;8317;52.186;5.688;2022-07-29T10:07:26;3.17;;;1.60;;
16416;SDS011;8317;52.186;5.688;2022-07-29T10:10:08;2.85;;;1.67;;
16416;SDS011;8317;52.186;5.688;2022-07-29T10:12:39;4.25;;;1.65;;
16416;SDS011;8317;52.186;5.688;2022-07-29T10:15:15;2.33;;;1.63;;
16416;SDS011;8317;52.186;5.688;2022-07-29T10:17:42;2.38;;;1.55;;
16416;SDS011;8317;52.186;5.688;2022-07-29T10:20:11;6.40;;;1.88;;
16416;SDS011;8317;52.186;5.688;2022-07-29T10:22:38;4.15;;;1.80;;
16416;SDS011;8317;52.186;5.688;2022-07-29T10:25:06;4.43;;;1.90;;
16416;SDS011;8317;52.186;5.688;2022-07-29T10:27:34;3.15;;;1.73;;
16416;SDS011;8317;52.186;5.688;2022-07-29T10:30:02;3.80;;;2.08;;
16416;SDS011;8317;52.186;5.688;2022-07-29T10:32:34;3.45;;;1.65;;
16416;SDS011;8317;52.186;5.688;2022-07-29T10:35:26;5.30;;;1.98;;
16416;SDS011;8317;52.186;5.688;2022-07-29T10:41:10;2.33;;;1.90;;
16416;SDS011;8317;52.186;5.688;2022-07-29T10:44:08;5.32;;;2.10;;
16416;SDS011;8317;52.186;5.688;2022-07-29T10:46:40;5.93;;;1.83;;
16416;SDS011;8317;52.186;5.688;2022-07-29T10:49:07;5.85;;;2.03;;
16416;SDS011;8317;52.186;5.688;2022-07-29T10:51:52;2.50;;;1.65;;
16416;SDS011;8317;52.186;5.688;2022-07-29T10:54:36;3.45;;;1.85;;
16416;SDS011;8317;52.186;5.688;2022-07-29T10:57:16;4.05;;;1.80;;
16416;SDS011;8317;52.186;5.688;2022-07-29T11:02:57;4.93;;;2.47;;
16416;SDS011;8317;52.186;5.688;2022-07-29T11:05:25;2.97;;;1.98;;
16416;SDS011;8317;52.186;5.688;2022-07-29T11:10:52;6.57;;;1.95;;
16416;SDS011;8317;52.186;5.688;2022-07-29T11:13:45;4.45;;;1.90;;
16416;SDS011;8317;52.186;5.688;2022-07-29T11:16:13;3.17;;;1.73;;
16416;SDS011;8317;52.186;5.688;2022-07-29T11:21:45;3.40;;;2.00;;
16416;SDS011;8317;52.186;5.688;2022-07-29T11:24:16;5.25;;;2.15;;
16416;SDS011;8317;52.186;5.688;2022-07-29T11:26:45;4.90;;;2.25;;
16416;SDS011;8317;52.186;5.688;2022-07-29T11:29:40;7.40;;;2.33;;
16416;SDS011;8317;52.186;5.688;2022-07-29T11:32:16;4.85;;;2.13;;
16416;SDS011;8317;52.186;5.688;2022-07-29T11:34:45;5.00;;;2.20;;
16416;SDS011;8317;52.186;5.688;2022-07-29T11:37:16;6.47;;;2.20;;
16416;SDS011;8317;52.186;5.688;2022-07-29T11:42:44;5.00;;;2.03;;
16416;SDS011;8317;52.186;5.688;2022-07-29T11:45:16;5.63;;;2.35;;
16416;SDS011;8317;52.186;5.688;2022-07-29T11:47:54;3.83;;;2.30;;
16416;SDS011;8317;52.186;5.688;2022-07-29T11:50:27;4.90;;;2.60;;
16416;SDS011;8317;52.186;5.688;2022-07-29T11:53:09;4.20;;;1.90;;
16416;SDS011;8317;52.186;5.688;2022-07-29T11:55:39;3.70;;;2.25;;
16416;SDS011;8317;52.186;5.688;2022-07-29T11:58:07;3.17;;;2.45;;
16416;SDS011;8317;52.186;5.688;2022-07-29T12:00:34;7.90;;;2.40;;
16416;SDS011;8317;52.186;5.688;2022-07-29T12:03:04;3.53;;;2.22;;
16416;SDS011;8317;52.186;5.688;2022-07-29T12:05:39;6.60;;;2.80;;
16416;SDS011;8317;52.186;5.688;2022-07-29T12:08:15;6.93;;;2.03;;
16416;SDS011;8317;52.186;5.688;2022-07-29T12:10:46;5.38;;;2.50;;
16416;SDS011;8317;52.186;5.688;2022-07-29T12:13:14;3.15;;;2.10;;
16416;SDS011;8317;52.186;5.688;2022-07-29T12:15:42;4.53;;;2.30;;
16416;SDS011;8317;52.186;5.688;2022-07-29T12:18:18;3.45;;;2.30;;
16416;SDS011;8317;52.186;5.688;2022-07-29T12:20:46;5.50;;;1.80;;
16416;SDS011;8317;52.186;5.688;2022-07-29T12:23:14;4.78;;;2.42;;
16416;SDS011;8317;52.186;5.688;2022-07-29T12:25:42;4.10;;;2.55;;
16416;SDS011;8317;52.186;5.688;2022-07-29T12:28:12;3.58;;;2.30;;
16416;SDS011;8317;52.186;5.688;2022-07-29T12:30:41;5.10;;;2.42;;
16416;SDS011;8317;52.186;5.688;2022-07-29T12:33:13;3.08;;;2.20;;
16416;SDS011;8317;52.186;5.688;2022-07-29T12:35:46;3.95;;;2.30;;
16416;SDS011;8317;52.186;5.688;2022-07-29T12:38:15;4.70;;;2.08;;
16416;SDS011;8317;52.186;5.688;2022-07-29T12:40:44;6.10;;;2.30;;
16416;SDS011;8317;52.186;5.688;2022-07-29T12:43:14;4.72;;;2.40;;
16416;SDS011;8317;52.186;5.688;2022-07-29T12:45:43;5.07;;;2.20;;
16416;SDS011;8317;52.186;5.688;2022-07-29T12:48:11;3.10;;;2.22;;
16416;SDS011;8317;52.186;5.688;2022-07-29T12:50:51;4.30;;;2.30;;
16416;SDS011;8317;52.186;5.688;2022-07-29T12:53:22;6.10;;;2.42;;
16416;SDS011;8317;52.186;5.688;2022-07-29T12:55:50;5.82;;;2.40;;
16416;SDS011;8317;52.186;5.688;2022-07-29T12:58:29;4.90;;;2.65;;
16416;SDS011;8317;52.186;5.688;2022-07-29T13:01:02;4.50;;;2.50;;
16416;SDS011;8317;52.186;5.688;2022-07-29T13:03:44;6.22;;;2.47;;
16416;SDS011;8317;52.186;5.688;2022-07-29T13:06:28;3.83;;;2.08;;
16416;SDS011;8317;52.186;5.688;2022-07-29T13:09:00;6.53;;;2.25;;
16416;SDS011;8317;52.186;5.688;2022-07-29T13:11:29;6.53;;;2.70;;
16416;SDS011;8317;52.186;5.688;2022-07-29T13:13:58;4.78;;;2.60;;
16416;SDS011;8317;52.186;5.688;2022-07-29T13:16:25;5.32;;;2.40;;
16416;SDS011;8317;52.186;5.688;2022-07-29T13:21:36;4.45;;;2.50;;
16416;SDS011;8317;52.186;5.688;2022-07-29T13:24:04;7.03;;;2.58;;
16416;SDS011;8317;52.186;5.688;2022-07-29T13:26:32;5.68;;;2.10;;
16416;SDS011;8317;52.186;5.688;2022-07-29T13:29:00;4.40;;;2.58;;
16416;SDS011;8317;52.186;5.688;2022-07-29T13:31:27;6.63;;;2.55;;
16416;SDS011;8317;52.186;5.688;2022-07-29T13:33:54;7.63;;;2.70;;
16416;SDS011;8317;52.186;5.688;2022-07-29T13:36:21;5.53;;;2.30;;
16416;SDS011;8317;52.186;5.688;2022-07-29T13:38:48;5.40;;;3.05;;
16416;SDS011;8317;52.186;5.688;2022-07-29T13:41:15;3.63;;;2.75;;
16416;SDS011;8317;52.186;5.688;2022-07-29T13:43:42;5.40;;;2.70;;
16416;SDS011;8317;52.186;5.688;2022-07-29T13:46:10;5.20;;;3.15;;
16416;SDS011;8317;52.186;5.688;2022-07-29T13:48:37;5.65;;;3.13;;
16416;SDS011;8317;52.186;5.688;2022-07-29T13:51:04;6.78;;;2.60;;
16416;SDS011;8317;52.186;5.688;2022-07-29T13:53:31;5.40;;;2.00;;
16416;SDS011;8317;52.186;5.688;2022-07-29T13:55:58;4.05;;;2.13;;
16416;SDS011;8317;52.186;5.688;2022-07-29T13:58:25;4.15;;;2.55;;
16416;SDS011;8317;52.186;5.688;2022-07-29T14:00:52;5.85;;;2.58;;
16416;SDS011;8317;52.186;5.688;2022-07-29T14:03:20;6.25;;;2.60;;
16416;SDS011;8317;52.186;5.688;2022-07-29T14:05:47;8.07;;;2.30;;
16416;SDS011;8317;52.186;5.688;2022-07-29T14:08:14;4.53;;;2.53;;
16416;SDS011;8317;52.186;5.688;2022-07-29T14:10:41;4.88;;;2.47;;
16416;SDS011;8317;52.186;5.688;2022-07-29T14:13:08;5.05;;;2.40;;
16416;SDS011;8317;52.186;5.688;2022-07-29T14:15:34;4.88;;;2.38;;
16416;SDS011;8317;52.186;5.688;2022-07-29T14:18:01;3.13;;;2.80;;
16416;SDS011;8317;52.186;5.688;2022-07-29T14:20:30;4.07;;;2.47;;
16416;SDS011;8317;52.186;5.688;2022-07-29T14:22:57;6.45;;;2.67;;
16416;SDS011;8317;52.186;5.688;2022-07-29T14:25:24;10.88;;;2.80;;
16416;SDS011;8317;52.186;5.688;2022-07-29T14:27:51;10.40;;;2.90;;
16416;SDS011;8317;52.186;5.688;2022-07-29T14:30:19;6.68;;;2.90;;
16416;SDS011;8317;52.186;5.688;2022-07-29T14:32:46;4.63;;;2.50;;
16416;SDS011;8317;52.186;5.688;2022-07-29T14:35:13;9.10;;;2.30;;
16416;SDS011;8317;52.186;5.688;2022-07-29T14:37:41;6.75;;;2.35;;
16416;SDS011;8317;52.186;5.688;2022-07-29T14:40:09;7.65;;;2.67;;
16416;SDS011;8317;52.186;5.688;2022-07-29T14:42:36;3.78;;;2.55;;
16416;SDS011;8317;52.186;5.688;2022-07-29T14:45:04;6.57;;;2.40;;
16416;SDS011;8317;52.186;5.688;2022-07-29T14:47:32;8.55;;;2.53;;
16416;SDS011;8317;52.186;5.688;2022-07-29T14:49:59;7.40;;;2.65;;
16416;SDS011;8317;52.186;5.688;2022-07-29T14:52:26;4.07;;;2.35;;
16416;SDS011;8317;52.186;5.688;2022-07-29T14:54:54;4.45;;;2.10;;
16416;SDS011;8317;52.186;5.688;2022-07-29T14:57:21;3.28;;;1.90;;
16416;SDS011;8317;52.186;5.688;2022-07-29T14:59:48;6.30;;;2.40;;
16416;SDS011;8317;52.186;5.688;2022-07-29T15:02:15;4.10;;;2.45;;
16416;SDS011;8317;52.186;5.688;2022-07-29T15:04:42;4.70;;;2.40;;
16416;SDS011;8317;52.186;5.688;2022-07-29T15:07:11;7.60;;;2.20;;
16416;SDS011;8317;52.186;5.688;2022-07-29T15:09:37;6.50;;;2.40;;
16416;SDS011;8317;52.186;5.688;2022-07-29T15:12:06;4.43;;;2.33;;
16416;SDS011;8317;52.186;5.688;2022-07-29T15:14:35;3.60;;;2.40;;
16416;SDS011;8317;52.186;5.688;2022-07-29T15:17:02;5.05;;;2.30;;
16416;SDS011;8317;52.186;5.688;2022-07-29T15:19:29;4.13;;;2.20;;
16416;SDS011;8317;52.186;5.688;2022-07-29T15:21:56;2.55;;;1.95;;
16416;SDS011;8317;52.186;5.688;2022-07-29T15:24:23;4.43;;;2.08;;
16416;SDS011;8317;52.186;5.688;2022-07-29T15:26:50;5.88;;;1.80;;
16416;SDS011;8317;52.186;5.688;2022-07-29T15:29:18;5.75;;;2.10;;
16416;SDS011;8317;52.186;5.688;2022-07-29T15:31:45;4.90;;;2.33;;
16416;SDS011;8317;52.186;5.688;2022-07-29T15:34:12;4.28;;;1.90;;